sensor_id;sensor_type;location;lat;lon;timestamp;P1;durP1;ratioP1;P2;durP2;ratioP2
71080;SDS011;58740;50.672;18.690;2023-05-07T00:00:25;6.40;;;3.10;;
71080;SDS011;58740;50.672;18.690;2023-05-07T00:03:13;8.60;;;3.50;;
71080;SDS011;58740;50.672;18.690;2023-05-07T00:05:41;8.10;;;3.60;;
71080;SDS011;58740;50.672;18.690;2023-05-07T00:08:09;7.00;;;3.10;;
71080;SDS011;58740;50.672;18.690;2023-05-07T00:10:37;6.20;;;2.70;;
71080;SDS011;58740;50.672;18.690;2023-05-07T00:13:05;5.60;;;2.80;;
71080;SDS011;58740;50.672;18.690;2023-05-07T00:15:33;7.70;;;3.10;;
71080;SDS011;58740;50.672;18.690;2023-05-07T00:18:01;6.20;;;3.30;;
71080;SDS011;58740;50.672;18.690;2023-05-07T00:20:29;6.40;;;2.70;;
71080;SDS011;58740;50.672;18.690;2023-05-07T00:22:56;6.30;;;2.80;;
71080;SDS011;58740;50.672;18.690;2023-05-07T00:25:24;4.80;;;2.50;;
71080;SDS011;58740;50.672;18.690;2023-05-07T00:27:52;4.80;;;2.40;;
71080;SDS011;58740;50.672;18.690;2023-05-07T00:30:20;4.50;;;2.10;;
71080;SDS011;58740;50.672;18.690;2023-05-07T00:32:47;4.00;;;1.90;;
71080;SDS011;58740;50.672;18.690;2023-05-07T00:35:16;5.10;;;2.10;;
71080;SDS011;58740;50.672;18.690;2023-05-07T00:37:44;5.20;;;1.80;;
71080;SDS011;58740;50.672;18.690;2023-05-07T00:40:12;3.80;;;2.00;;
71080;SDS011;58740;50.672;18.690;2023-05-07T00:42:40;4.50;;;1.80;;
71080;SDS011;58740;50.672;18.690;2023-05-07T00:45:08;3.90;;;1.60;;
71080;SDS011;58740;50.672;18.690;2023-05-07T00:47:36;4.00;;;1.60;;
71080;SDS011;58740;50.672;18.690;2023-05-07T00:50:05;4.00;;;1.80;;
71080;SDS011;58740;50.672;18.690;2023-05-07T00:52:33;2.30;;;1.10;;
71080;SDS011;58740;50.672;18.690;2023-05-07T00:55:05;4.00;;;1.50;;
71080;SDS011;58740;50.672;18.690;2023-05-07T00:57:39;3.30;;;1.40;;
71080;SDS011;58740;50.672;18.690;2023-05-07T01:00:09;4.20;;;1.30;;
71080;SDS011;58740;50.672;18.690;2023-05-07T01:02:39;2.30;;;1.10;;
71080;SDS011;58740;50.672;18.690;2023-05-07T01:05:09;4.00;;;1.40;;
71080;SDS011;58740;50.672;18.690;2023-05-07T01:07:40;3.10;;;1.40;;
71080;SDS011;58740;50.672;18.690;2023-05-07T01:10:10;3.00;;;1.30;;
71080;SDS011;58740;50.672;18.690;2023-05-07T01:12:40;4.30;;;1.30;;
71080;SDS011;58740;50.672;18.690;2023-05-07T01:15:09;4.70;;;1.30;;
71080;SDS011;58740;50.672;18.690;2023-05-07T01:17:41;3.60;;;1.30;;
71080;SDS011;58740;50.672;18.690;2023-05-07T01:20:10;3.10;;;1.30;;
71080;SDS011;58740;50.672;18.690;2023-05-07T01:22:39;2.00;;;0.90;;
71080;SDS011;58740;50.672;18.690;2023-05-07T01:25:08;2.80;;;0.80;;
71080;SDS011;58740;50.672;18.690;2023-05-07T01:27:35;3.30;;;1.20;;
71080;SDS011;58740;50.672;18.690;2023-05-07T01:30:05;3.00;;;1.10;;
71080;SDS011;58740;50.672;18.690;2023-05-07T01:35:21;4.20;;;1.50;;
71080;SDS011;58740;50.672;18.690;2023-05-07T01:37:53;4.30;;;1.50;;
71080;SDS011;58740;50.672;18.690;2023-05-07T01:40:22;4.90;;;1.80;;
71080;SDS011;58740;50.672;18.690;2023-05-07T01:42:52;6.50;;;2.40;;
71080;SDS011;58740;50.672;18.690;2023-05-07T01:45:21;7.80;;;2.60;;
71080;SDS011;58740;50.672;18.690;2023-05-07T01:47:49;6.00;;;1.90;;
71080;SDS011;58740;50.672;18.690;2023-05-07T01:50:18;4.50;;;1.60;;
71080;SDS011;58740;50.672;18.690;2023-05-07T01:52:47;4.20;;;1.60;;
71080;SDS011;58740;50.672;18.690;2023-05-07T01:55:17;4.50;;;1.40;;
71080;SDS011;58740;50.672;18.690;2023-05-07T01:57:45;2.40;;;1.10;;
71080;SDS011;58740;50.672;18.690;2023-05-07T02:00:13;4.80;;;1.40;;
71080;SDS011;58740;50.672;18.690;2023-05-07T02:02:41;3.50;;;1.40;;
71080;SDS011;58740;50.672;18.690;2023-05-07T02:05:09;3.40;;;1.30;;
71080;SDS011;58740;50.672;18.690;2023-05-07T02:07:37;4.00;;;1.40;;
71080;SDS011;58740;50.672;18.690;2023-05-07T02:10:05;5.10;;;1.30;;
71080;SDS011;58740;50.672;18.690;2023-05-07T02:12:33;2.90;;;1.20;;
71080;SDS011;58740;50.672;18.690;2023-05-07T02:15:01;2.80;;;1.20;;
71080;SDS011;58740;50.672;18.690;2023-05-07T02:17:29;3.70;;;1.50;;
71080;SDS011;58740;50.672;18.690;2023-05-07T02:19:59;4.30;;;1.70;;
71080;SDS011;58740;50.672;18.690;2023-05-07T02:22:27;7.80;;;3.40;;
71080;SDS011;58740;50.672;18.690;2023-05-07T02:24:55;3.60;;;1.40;;
71080;SDS011;58740;50.672;18.690;2023-05-07T02:27:22;4.70;;;1.60;;
71080;SDS011;58740;50.672;18.690;2023-05-07T02:29:50;2.90;;;1.30;;
71080;SDS011;58740;50.672;18.690;2023-05-07T02:32:18;3.70;;;1.30;;
71080;SDS011;58740;50.672;18.690;2023-05-07T02:34:45;4.50;;;1.80;;
71080;SDS011;58740;50.672;18.690;2023-05-07T02:37:13;4.10;;;1.60;;
71080;SDS011;58740;50.672;18.690;2023-05-07T02:39:41;4.40;;;1.60;;
71080;SDS011;58740;50.672;18.690;2023-05-07T02:42:08;4.90;;;1.80;;
71080;SDS011;58740;50.672;18.690;2023-05-07T02:44:36;4.20;;;1.80;;
71080;SDS011;58740;50.672;18.690;2023-05-07T02:47:04;3.70;;;1.30;;
71080;SDS011;58740;50.672;18.690;2023-05-07T02:49:32;4.30;;;1.70;;
71080;SDS011;58740;50.672;18.690;2023-05-07T02:52:00;4.40;;;1.40;;
71080;SDS011;58740;50.672;18.690;2023-05-07T02:54:28;3.20;;;1.40;;
71080;SDS011;58740;50.672;18.690;2023-05-07T02:56:56;5.50;;;1.70;;
71080;SDS011;58740;50.672;18.690;2023-05-07T02:59:24;3.50;;;1.50;;
71080;SDS011;58740;50.672;18.690;2023-05-07T03:01:53;3.80;;;1.40;;
71080;SDS011;58740;50.672;18.690;2023-05-07T03:04:21;6.60;;;1.80;;
71080;SDS011;58740;50.672;18.690;2023-05-07T03:06:49;4.40;;;1.70;;
71080;SDS011;58740;50.672;18.690;2023-05-07T03:09:16;4.50;;;1.70;;
71080;SDS011;58740;50.672;18.690;2023-05-07T03:11:44;4.10;;;1.50;;
71080;SDS011;58740;50.672;18.690;2023-05-07T03:14:12;4.40;;;2.00;;
71080;SDS011;58740;50.672;18.690;2023-05-07T03:16:40;4.10;;;1.60;;
71080;SDS011;58740;50.672;18.690;2023-05-07T03:19:08;3.10;;;1.40;;
71080;SDS011;58740;50.672;18.690;2023-05-07T03:21:36;3.60;;;1.10;;
71080;SDS011;58740;50.672;18.690;2023-05-07T03:24:04;5.40;;;2.10;;
71080;SDS011;58740;50.672;18.690;2023-05-07T03:26:32;3.80;;;1.50;;
71080;SDS011;58740;50.672;18.690;2023-05-07T03:29:00;3.80;;;1.50;;
71080;SDS011;58740;50.672;18.690;2023-05-07T03:31:28;4.80;;;1.30;;
71080;SDS011;58740;50.672;18.690;2023-05-07T03:33:57;5.10;;;2.10;;
71080;SDS011;58740;50.672;18.690;2023-05-07T03:36:25;4.80;;;1.60;;
71080;SDS011;58740;50.672;18.690;2023-05-07T03:38:55;4.90;;;2.00;;
71080;SDS011;58740;50.672;18.690;2023-05-07T03:41:23;3.90;;;1.70;;
71080;SDS011;58740;50.672;18.690;2023-05-07T03:43:51;4.60;;;2.70;;
71080;SDS011;58740;50.672;18.690;2023-05-07T03:46:19;4.60;;;1.80;;
71080;SDS011;58740;50.672;18.690;2023-05-07T03:48:47;4.50;;;2.00;;
71080;SDS011;58740;50.672;18.690;2023-05-07T03:51:15;5.20;;;2.00;;
71080;SDS011;58740;50.672;18.690;2023-05-07T03:53:43;4.10;;;1.70;;
71080;SDS011;58740;50.672;18.690;2023-05-07T03:56:13;4.70;;;2.10;;
71080;SDS011;58740;50.672;18.690;2023-05-07T03:58:42;3.80;;;1.70;;
71080;SDS011;58740;50.672;18.690;2023-05-07T04:01:10;4.90;;;2.00;;
71080;SDS011;58740;50.672;18.690;2023-05-07T04:03:39;3.80;;;1.60;;
71080;SDS011;58740;50.672;18.690;2023-05-07T04:06:07;4.30;;;1.60;;
71080;SDS011;58740;50.672;18.690;2023-05-07T04:08:34;6.50;;;2.40;;
71080;SDS011;58740;50.672;18.690;2023-05-07T04:11:03;5.00;;;1.70;;
71080;SDS011;58740;50.672;18.690;2023-05-07T04:13:31;4.50;;;2.20;;
71080;SDS011;58740;50.672;18.690;2023-05-07T04:16:01;6.10;;;2.50;;
71080;SDS011;58740;50.672;18.690;2023-05-07T04:18:30;4.60;;;2.20;;
71080;SDS011;58740;50.672;18.690;2023-05-07T04:20:58;4.30;;;1.60;;
71080;SDS011;58740;50.672;18.690;2023-05-07T04:23:26;3.00;;;1.20;;
71080;SDS011;58740;50.672;18.690;2023-05-07T04:25:54;4.30;;;1.60;;
71080;SDS011;58740;50.672;18.690;2023-05-07T04:28:21;3.00;;;0.90;;
71080;SDS011;58740;50.672;18.690;2023-05-07T04:30:49;4.30;;;1.10;;
71080;SDS011;58740;50.672;18.690;2023-05-07T04:33:17;4.80;;;1.70;;
71080;SDS011;58740;50.672;18.690;2023-05-07T04:35:45;2.90;;;0.90;;
71080;SDS011;58740;50.672;18.690;2023-05-07T04:38:13;2.20;;;0.90;;
71080;SDS011;58740;50.672;18.690;2023-05-07T04:40:41;2.50;;;1.40;;
71080;SDS011;58740;50.672;18.690;2023-05-07T04:43:10;4.20;;;1.00;;
71080;SDS011;58740;50.672;18.690;2023-05-07T04:45:38;3.30;;;1.30;;
71080;SDS011;58740;50.672;18.690;2023-05-07T04:48:09;4.00;;;1.20;;
71080;SDS011;58740;50.672;18.690;2023-05-07T04:50:37;2.70;;;1.10;;
71080;SDS011;58740;50.672;18.690;2023-05-07T04:53:05;4.00;;;1.10;;
71080;SDS011;58740;50.672;18.690;2023-05-07T04:55:33;2.40;;;0.90;;
71080;SDS011;58740;50.672;18.690;2023-05-07T04:58:01;3.70;;;1.50;;
71080;SDS011;58740;50.672;18.690;2023-05-07T05:00:29;4.50;;;1.40;;
71080;SDS011;58740;50.672;18.690;2023-05-07T05:02:57;3.60;;;1.50;;
71080;SDS011;58740;50.672;18.690;2023-05-07T05:05:25;2.70;;;1.00;;
71080;SDS011;58740;50.672;18.690;2023-05-07T05:07:53;3.40;;;1.10;;
71080;SDS011;58740;50.672;18.690;2023-05-07T05:10:21;4.70;;;1.60;;
71080;SDS011;58740;50.672;18.690;2023-05-07T05:12:51;3.40;;;1.10;;
71080;SDS011;58740;50.672;18.690;2023-05-07T05:15:19;4.80;;;1.00;;
71080;SDS011;58740;50.672;18.690;2023-05-07T05:17:47;4.50;;;1.60;;
71080;SDS011;58740;50.672;18.690;2023-05-07T05:20:15;5.70;;;1.10;;
71080;SDS011;58740;50.672;18.690;2023-05-07T05:22:43;4.60;;;1.30;;
71080;SDS011;58740;50.672;18.690;2023-05-07T05:25:10;3.50;;;1.50;;
71080;SDS011;58740;50.672;18.690;2023-05-07T05:27:38;5.00;;;1.50;;
71080;SDS011;58740;50.672;18.690;2023-05-07T05:30:06;2.70;;;1.10;;
71080;SDS011;58740;50.672;18.690;2023-05-07T05:32:34;2.90;;;0.90;;
71080;SDS011;58740;50.672;18.690;2023-05-07T05:35:02;3.30;;;1.20;;
71080;SDS011;58740;50.672;18.690;2023-05-07T05:37:30;2.30;;;0.90;;
71080;SDS011;58740;50.672;18.690;2023-05-07T05:39:58;3.60;;;1.30;;
71080;SDS011;58740;50.672;18.690;2023-05-07T05:42:26;3.80;;;1.10;;
71080;SDS011;58740;50.672;18.690;2023-05-07T05:44:54;3.80;;;1.30;;
71080;SDS011;58740;50.672;18.690;2023-05-07T05:47:22;3.10;;;1.10;;
71080;SDS011;58740;50.672;18.690;2023-05-07T05:49:50;5.50;;;1.50;;
71080;SDS011;58740;50.672;18.690;2023-05-07T05:52:18;3.50;;;1.30;;
71080;SDS011;58740;50.672;18.690;2023-05-07T05:54:45;4.00;;;1.30;;
71080;SDS011;58740;50.672;18.690;2023-05-07T05:57:13;2.60;;;1.10;;
71080;SDS011;58740;50.672;18.690;2023-05-07T05:59:41;3.30;;;1.30;;
71080;SDS011;58740;50.672;18.690;2023-05-07T06:02:09;4.90;;;1.40;;
71080;SDS011;58740;50.672;18.690;2023-05-07T06:04:37;4.50;;;1.50;;
71080;SDS011;58740;50.672;18.690;2023-05-07T06:07:05;4.70;;;1.30;;
71080;SDS011;58740;50.672;18.690;2023-05-07T06:09:33;3.60;;;1.20;;
71080;SDS011;58740;50.672;18.690;2023-05-07T06:12:01;3.70;;;1.10;;
71080;SDS011;58740;50.672;18.690;2023-05-07T06:14:29;3.50;;;1.20;;
71080;SDS011;58740;50.672;18.690;2023-05-07T06:16:57;3.30;;;1.20;;
71080;SDS011;58740;50.672;18.690;2023-05-07T06:19:25;3.90;;;1.10;;
71080;SDS011;58740;50.672;18.690;2023-05-07T06:21:54;4.10;;;1.40;;
71080;SDS011;58740;50.672;18.690;2023-05-07T06:24:24;3.20;;;1.40;;
71080;SDS011;58740;50.672;18.690;2023-05-07T06:26:52;3.50;;;1.10;;
71080;SDS011;58740;50.672;18.690;2023-05-07T06:29:19;2.10;;;0.50;;
71080;SDS011;58740;50.672;18.690;2023-05-07T06:31:47;2.10;;;1.00;;
71080;SDS011;58740;50.672;18.690;2023-05-07T06:34:15;2.50;;;0.90;;
71080;SDS011;58740;50.672;18.690;2023-05-07T06:36:43;3.80;;;1.40;;
71080;SDS011;58740;50.672;18.690;2023-05-07T06:39:10;3.00;;;1.20;;
71080;SDS011;58740;50.672;18.690;2023-05-07T06:41:38;3.70;;;1.30;;
71080;SDS011;58740;50.672;18.690;2023-05-07T06:44:06;4.40;;;1.60;;
71080;SDS011;58740;50.672;18.690;2023-05-07T06:46:36;3.50;;;1.70;;
71080;SDS011;58740;50.672;18.690;2023-05-07T06:49:04;3.90;;;1.50;;
71080;SDS011;58740;50.672;18.690;2023-05-07T06:51:32;3.20;;;1.30;;
71080;SDS011;58740;50.672;18.690;2023-05-07T06:54:01;3.70;;;1.40;;
71080;SDS011;58740;50.672;18.690;2023-05-07T06:56:29;3.90;;;1.20;;
71080;SDS011;58740;50.672;18.690;2023-05-07T06:58:57;3.60;;;1.50;;
71080;SDS011;58740;50.672;18.690;2023-05-07T07:01:28;3.80;;;1.00;;
71080;SDS011;58740;50.672;18.690;2023-05-07T07:03:55;4.20;;;1.20;;
71080;SDS011;58740;50.672;18.690;2023-05-07T07:06:23;3.60;;;1.20;;
71080;SDS011;58740;50.672;18.690;2023-05-07T07:08:51;3.70;;;1.10;;
71080;SDS011;58740;50.672;18.690;2023-05-07T07:11:19;2.80;;;1.00;;
71080;SDS011;58740;50.672;18.690;2023-05-07T07:13:46;3.00;;;1.20;;
71080;SDS011;58740;50.672;18.690;2023-05-07T07:16:14;3.60;;;1.60;;
71080;SDS011;58740;50.672;18.690;2023-05-07T07:18:42;3.20;;;1.10;;
71080;SDS011;58740;50.672;18.690;2023-05-07T07:21:10;3.00;;;1.30;;
71080;SDS011;58740;50.672;18.690;2023-05-07T07:23:37;5.00;;;1.60;;
71080;SDS011;58740;50.672;18.690;2023-05-07T07:26:05;4.10;;;1.40;;
71080;SDS011;58740;50.672;18.690;2023-05-07T07:28:34;3.00;;;1.20;;
71080;SDS011;58740;50.672;18.690;2023-05-07T07:31:03;3.20;;;1.20;;
71080;SDS011;58740;50.672;18.690;2023-05-07T07:33:30;4.40;;;1.40;;
71080;SDS011;58740;50.672;18.690;2023-05-07T07:35:58;4.50;;;1.50;;
71080;SDS011;58740;50.672;18.690;2023-05-07T07:38:26;6.30;;;2.20;;
71080;SDS011;58740;50.672;18.690;2023-05-07T07:40:53;4.30;;;1.60;;
71080;SDS011;58740;50.672;18.690;2023-05-07T07:43:22;4.00;;;1.50;;
71080;SDS011;58740;50.672;18.690;2023-05-07T07:45:50;3.30;;;1.20;;
71080;SDS011;58740;50.672;18.690;2023-05-07T07:48:17;4.40;;;2.00;;
71080;SDS011;58740;50.672;18.690;2023-05-07T07:50:48;2.90;;;1.20;;
71080;SDS011;58740;50.672;18.690;2023-05-07T07:53:18;2.80;;;1.30;;
71080;SDS011;58740;50.672;18.690;2023-05-07T07:55:47;4.00;;;1.20;;
71080;SDS011;58740;50.672;18.690;2023-05-07T07:58:17;3.70;;;1.20;;
71080;SDS011;58740;50.672;18.690;2023-05-07T08:01:09;2.20;;;0.80;;
71080;SDS011;58740;50.672;18.690;2023-05-07T08:03:41;2.10;;;1.00;;
71080;SDS011;58740;50.672;18.690;2023-05-07T08:06:09;3.90;;;1.30;;
71080;SDS011;58740;50.672;18.690;2023-05-07T08:08:46;4.00;;;1.30;;
71080;SDS011;58740;50.672;18.690;2023-05-07T08:11:14;2.30;;;1.00;;
71080;SDS011;58740;50.672;18.690;2023-05-07T08:14:02;4.30;;;1.40;;
71080;SDS011;58740;50.672;18.690;2023-05-07T08:16:31;3.40;;;1.20;;
71080;SDS011;58740;50.672;18.690;2023-05-07T08:18:59;3.70;;;1.50;;
71080;SDS011;58740;50.672;18.690;2023-05-07T08:21:27;4.10;;;1.10;;
71080;SDS011;58740;50.672;18.690;2023-05-07T08:23:55;2.90;;;1.20;;
71080;SDS011;58740;50.672;18.690;2023-05-07T08:26:35;4.00;;;1.30;;
71080;SDS011;58740;50.672;18.690;2023-05-07T08:29:03;3.90;;;1.40;;
71080;SDS011;58740;50.672;18.690;2023-05-07T08:31:32;3.40;;;1.40;;
71080;SDS011;58740;50.672;18.690;2023-05-07T08:33:59;3.70;;;1.50;;
71080;SDS011;58740;50.672;18.690;2023-05-07T08:36:27;3.00;;;1.10;;
71080;SDS011;58740;50.672;18.690;2023-05-07T08:38:56;3.30;;;1.40;;
71080;SDS011;58740;50.672;18.690;2023-05-07T08:41:24;4.40;;;1.50;;
71080;SDS011;58740;50.672;18.690;2023-05-07T08:43:52;3.80;;;1.70;;
71080;SDS011;58740;50.672;18.690;2023-05-07T08:46:22;4.10;;;1.70;;
71080;SDS011;58740;50.672;18.690;2023-05-07T08:48:51;3.10;;;1.20;;
71080;SDS011;58740;50.672;18.690;2023-05-07T08:51:20;4.70;;;1.70;;
71080;SDS011;58740;50.672;18.690;2023-05-07T08:53:49;4.10;;;1.60;;
71080;SDS011;58740;50.672;18.690;2023-05-07T08:56:17;4.20;;;1.50;;
71080;SDS011;58740;50.672;18.690;2023-05-07T08:58:49;3.40;;;1.50;;
71080;SDS011;58740;50.672;18.690;2023-05-07T09:01:17;4.10;;;1.40;;
71080;SDS011;58740;50.672;18.690;2023-05-07T09:03:46;3.70;;;1.80;;
71080;SDS011;58740;50.672;18.690;2023-05-07T09:06:15;4.40;;;2.00;;
71080;SDS011;58740;50.672;18.690;2023-05-07T09:08:52;6.10;;;1.50;;
71080;SDS011;58740;50.672;18.690;2023-05-07T09:11:24;5.40;;;2.00;;
71080;SDS011;58740;50.672;18.690;2023-05-07T09:13:56;4.60;;;2.20;;
71080;SDS011;58740;50.672;18.690;2023-05-07T09:16:25;4.30;;;1.70;;
71080;SDS011;58740;50.672;18.690;2023-05-07T09:18:54;4.60;;;1.30;;
71080;SDS011;58740;50.672;18.690;2023-05-07T09:21:22;5.00;;;2.10;;
71080;SDS011;58740;50.672;18.690;2023-05-07T09:23:51;4.70;;;1.80;;
71080;SDS011;58740;50.672;18.690;2023-05-07T09:26:24;5.90;;;1.90;;
71080;SDS011;58740;50.672;18.690;2023-05-07T09:28:55;5.30;;;1.70;;
71080;SDS011;58740;50.672;18.690;2023-05-07T09:31:23;5.00;;;1.80;;
71080;SDS011;58740;50.672;18.690;2023-05-07T09:33:52;4.10;;;1.40;;
71080;SDS011;58740;50.672;18.690;2023-05-07T09:36:20;2.80;;;1.20;;
71080;SDS011;58740;50.672;18.690;2023-05-07T09:38:48;4.40;;;1.60;;
71080;SDS011;58740;50.672;18.690;2023-05-07T09:41:19;2.20;;;0.90;;
71080;SDS011;58740;50.672;18.690;2023-05-07T09:43:53;3.50;;;1.30;;
71080;SDS011;58740;50.672;18.690;2023-05-07T09:46:29;4.80;;;1.60;;
71080;SDS011;58740;50.672;18.690;2023-05-07T09:49:01;3.30;;;1.30;;
71080;SDS011;58740;50.672;18.690;2023-05-07T09:51:39;2.90;;;1.40;;
71080;SDS011;58740;50.672;18.690;2023-05-07T09:54:10;2.80;;;1.20;;
71080;SDS011;58740;50.672;18.690;2023-05-07T09:56:39;3.40;;;1.10;;
71080;SDS011;58740;50.672;18.690;2023-05-07T09:59:14;3.60;;;1.30;;
71080;SDS011;58740;50.672;18.690;2023-05-07T10:01:44;4.40;;;1.60;;
71080;SDS011;58740;50.672;18.690;2023-05-07T10:04:13;4.40;;;1.70;;
71080;SDS011;58740;50.672;18.690;2023-05-07T10:06:42;3.70;;;1.30;;
71080;SDS011;58740;50.672;18.690;2023-05-07T10:09:12;3.60;;;1.40;;
71080;SDS011;58740;50.672;18.690;2023-05-07T10:11:41;3.20;;;1.30;;
71080;SDS011;58740;50.672;18.690;2023-05-07T10:14:10;2.90;;;1.10;;
71080;SDS011;58740;50.672;18.690;2023-05-07T10:16:38;5.30;;;1.90;;
71080;SDS011;58740;50.672;18.690;2023-05-07T10:19:07;3.50;;;1.50;;
71080;SDS011;58740;50.672;18.690;2023-05-07T10:21:39;4.10;;;1.30;;
71080;SDS011;58740;50.672;18.690;2023-05-07T10:24:17;3.80;;;1.50;;
71080;SDS011;58740;50.672;18.690;2023-05-07T10:26:51;2.30;;;1.10;;
71080;SDS011;58740;50.672;18.690;2023-05-07T10:34:47;6.00;;;2.50;;
71080;SDS011;58740;50.672;18.690;2023-05-07T10:37:19;5.20;;;2.30;;
71080;SDS011;58740;50.672;18.690;2023-05-07T10:39:47;4.10;;;1.80;;
71080;SDS011;58740;50.672;18.690;2023-05-07T10:42:15;5.20;;;2.00;;
71080;SDS011;58740;50.672;18.690;2023-05-07T10:44:43;3.70;;;1.40;;
71080;SDS011;58740;50.672;18.690;2023-05-07T10:47:14;5.10;;;2.60;;
71080;SDS011;58740;50.672;18.690;2023-05-07T10:52:16;4.70;;;2.20;;
71080;SDS011;58740;50.672;18.690;2023-05-07T10:54:45;4.20;;;2.00;;
71080;SDS011;58740;50.672;18.690;2023-05-07T10:57:32;4.70;;;2.40;;
71080;SDS011;58740;50.672;18.690;2023-05-07T11:03:06;3.90;;;1.90;;
71080;SDS011;58740;50.672;18.690;2023-05-07T11:05:36;4.90;;;2.10;;
71080;SDS011;58740;50.672;18.690;2023-05-07T11:08:05;5.70;;;2.60;;
71080;SDS011;58740;50.672;18.690;2023-05-07T11:10:53;4.20;;;1.90;;
71080;SDS011;58740;50.672;18.690;2023-05-07T11:13:43;4.10;;;2.00;;
71080;SDS011;58740;50.672;18.690;2023-05-07T11:16:22;3.90;;;2.00;;
71080;SDS011;58740;50.672;18.690;2023-05-07T11:18:54;6.20;;;3.00;;
71080;SDS011;58740;50.672;18.690;2023-05-07T11:21:41;5.20;;;2.40;;
71080;SDS011;58740;50.672;18.690;2023-05-07T11:24:10;3.90;;;1.80;;
71080;SDS011;58740;50.672;18.690;2023-05-07T11:26:43;6.80;;;2.70;;
71080;SDS011;58740;50.672;18.690;2023-05-07T11:29:15;5.20;;;2.00;;
71080;SDS011;58740;50.672;18.690;2023-05-07T11:31:55;4.80;;;1.90;;
71080;SDS011;58740;50.672;18.690;2023-05-07T11:34:24;4.30;;;1.50;;
71080;SDS011;58740;50.672;18.690;2023-05-07T11:36:54;4.00;;;1.80;;
71080;SDS011;58740;50.672;18.690;2023-05-07T11:39:31;6.50;;;2.10;;
71080;SDS011;58740;50.672;18.690;2023-05-07T11:42:03;5.70;;;2.20;;
71080;SDS011;58740;50.672;18.690;2023-05-07T11:44:42;4.00;;;2.20;;
71080;SDS011;58740;50.672;18.690;2023-05-07T11:47:11;5.50;;;2.40;;
71080;SDS011;58740;50.672;18.690;2023-05-07T11:49:48;5.30;;;2.00;;
71080;SDS011;58740;50.672;18.690;2023-05-07T11:52:18;6.30;;;2.30;;
71080;SDS011;58740;50.672;18.690;2023-05-07T11:54:55;4.60;;;2.60;;
71080;SDS011;58740;50.672;18.690;2023-05-07T11:57:24;5.80;;;2.80;;
71080;SDS011;58740;50.672;18.690;2023-05-07T11:59:58;5.20;;;2.10;;
71080;SDS011;58740;50.672;18.690;2023-05-07T12:02:26;6.20;;;2.60;;
71080;SDS011;58740;50.672;18.690;2023-05-07T12:04:55;6.30;;;2.30;;
71080;SDS011;58740;50.672;18.690;2023-05-07T12:07:24;7.50;;;3.10;;
71080;SDS011;58740;50.672;18.690;2023-05-07T12:09:53;9.60;;;4.20;;
71080;SDS011;58740;50.672;18.690;2023-05-07T12:12:21;7.30;;;2.80;;
71080;SDS011;58740;50.672;18.690;2023-05-07T12:14:50;6.50;;;2.00;;
71080;SDS011;58740;50.672;18.690;2023-05-07T12:17:18;5.30;;;1.90;;
71080;SDS011;58740;50.672;18.690;2023-05-07T12:19:46;4.00;;;1.90;;
71080;SDS011;58740;50.672;18.690;2023-05-07T12:22:19;5.20;;;2.30;;
71080;SDS011;58740;50.672;18.690;2023-05-07T12:24:49;6.20;;;2.30;;
71080;SDS011;58740;50.672;18.690;2023-05-07T12:27:25;4.90;;;2.00;;
71080;SDS011;58740;50.672;18.690;2023-05-07T12:29:53;3.60;;;1.40;;
71080;SDS011;58740;50.672;18.690;2023-05-07T12:32:22;6.80;;;2.90;;
71080;SDS011;58740;50.672;18.690;2023-05-07T12:34:51;4.50;;;1.90;;
71080;SDS011;58740;50.672;18.690;2023-05-07T12:37:23;5.70;;;2.60;;
71080;SDS011;58740;50.672;18.690;2023-05-07T12:42:53;5.30;;;2.10;;
71080;SDS011;58740;50.672;18.690;2023-05-07T12:45:27;5.50;;;2.10;;
71080;SDS011;58740;50.672;18.690;2023-05-07T12:47:54;4.90;;;2.20;;
71080;SDS011;58740;50.672;18.690;2023-05-07T12:50:22;5.60;;;2.50;;
71080;SDS011;58740;50.672;18.690;2023-05-07T12:52:50;7.70;;;3.20;;
71080;SDS011;58740;50.672;18.690;2023-05-07T12:55:18;7.20;;;3.10;;
71080;SDS011;58740;50.672;18.690;2023-05-07T12:57:50;6.80;;;3.10;;
71080;SDS011;58740;50.672;18.690;2023-05-07T13:00:39;6.80;;;2.70;;
71080;SDS011;58740;50.672;18.690;2023-05-07T13:03:09;6.60;;;2.40;;
71080;SDS011;58740;50.672;18.690;2023-05-07T13:05:37;5.90;;;2.80;;
71080;SDS011;58740;50.672;18.690;2023-05-07T13:08:05;4.20;;;2.10;;
71080;SDS011;58740;50.672;18.690;2023-05-07T13:10:33;4.70;;;2.70;;
71080;SDS011;58740;50.672;18.690;2023-05-07T13:13:02;5.60;;;2.80;;
71080;SDS011;58740;50.672;18.690;2023-05-07T13:15:30;6.30;;;3.20;;
71080;SDS011;58740;50.672;18.690;2023-05-07T13:17:58;6.70;;;3.10;;
71080;SDS011;58740;50.672;18.690;2023-05-07T13:20:26;7.00;;;2.80;;
71080;SDS011;58740;50.672;18.690;2023-05-07T13:22:54;5.00;;;2.40;;
71080;SDS011;58740;50.672;18.690;2023-05-07T13:25:22;5.90;;;2.90;;
71080;SDS011;58740;50.672;18.690;2023-05-07T13:27:49;6.00;;;2.80;;
71080;SDS011;58740;50.672;18.690;2023-05-07T13:30:36;7.10;;;3.00;;
71080;SDS011;58740;50.672;18.690;2023-05-07T13:33:04;7.20;;;2.40;;
71080;SDS011;58740;50.672;18.690;2023-05-07T13:35:33;6.50;;;3.40;;
71080;SDS011;58740;50.672;18.690;2023-05-07T13:38:01;5.90;;;2.50;;
71080;SDS011;58740;50.672;18.690;2023-05-07T13:40:29;5.20;;;2.70;;
71080;SDS011;58740;50.672;18.690;2023-05-07T13:42:58;8.30;;;2.80;;
71080;SDS011;58740;50.672;18.690;2023-05-07T13:45:29;4.70;;;2.20;;
71080;SDS011;58740;50.672;18.690;2023-05-07T13:47:57;4.60;;;2.00;;
71080;SDS011;58740;50.672;18.690;2023-05-07T13:50:26;4.60;;;1.90;;
71080;SDS011;58740;50.672;18.690;2023-05-07T13:52:57;6.50;;;2.60;;
71080;SDS011;58740;50.672;18.690;2023-05-07T13:55:25;5.20;;;2.20;;
71080;SDS011;58740;50.672;18.690;2023-05-07T13:58:00;6.20;;;2.50;;
71080;SDS011;58740;50.672;18.690;2023-05-07T14:00:33;7.40;;;3.30;;
71080;SDS011;58740;50.672;18.690;2023-05-07T14:03:02;6.90;;;3.10;;
71080;SDS011;58740;50.672;18.690;2023-05-07T14:05:31;5.90;;;2.90;;
71080;SDS011;58740;50.672;18.690;2023-05-07T14:07:59;6.20;;;2.30;;
71080;SDS011;58740;50.672;18.690;2023-05-07T14:10:27;6.60;;;3.20;;
71080;SDS011;58740;50.672;18.690;2023-05-07T14:12:55;4.80;;;2.50;;
71080;SDS011;58740;50.672;18.690;2023-05-07T14:15:22;5.40;;;2.40;;
71080;SDS011;58740;50.672;18.690;2023-05-07T14:17:50;6.70;;;3.00;;
71080;SDS011;58740;50.672;18.690;2023-05-07T14:20:18;6.30;;;2.20;;
71080;SDS011;58740;50.672;18.690;2023-05-07T14:22:46;6.40;;;2.90;;
71080;SDS011;58740;50.672;18.690;2023-05-07T14:25:14;5.50;;;2.80;;
71080;SDS011;58740;50.672;18.690;2023-05-07T14:27:42;8.50;;;3.60;;
71080;SDS011;58740;50.672;18.690;2023-05-07T14:30:10;5.00;;;2.20;;
71080;SDS011;58740;50.672;18.690;2023-05-07T14:32:39;6.30;;;3.40;;
71080;SDS011;58740;50.672;18.690;2023-05-07T14:35:08;11.40;;;3.90;;
71080;SDS011;58740;50.672;18.690;2023-05-07T14:37:36;5.50;;;2.50;;
71080;SDS011;58740;50.672;18.690;2023-05-07T14:40:04;6.30;;;3.00;;
71080;SDS011;58740;50.672;18.690;2023-05-07T14:42:33;5.70;;;2.90;;
71080;SDS011;58740;50.672;18.690;2023-05-07T14:45:02;6.90;;;2.50;;
71080;SDS011;58740;50.672;18.690;2023-05-07T14:47:30;6.20;;;2.60;;
71080;SDS011;58740;50.672;18.690;2023-05-07T14:49:57;6.00;;;2.50;;
71080;SDS011;58740;50.672;18.690;2023-05-07T14:52:26;6.10;;;2.70;;
71080;SDS011;58740;50.672;18.690;2023-05-07T14:54:54;6.50;;;3.30;;
71080;SDS011;58740;50.672;18.690;2023-05-07T14:57:22;7.30;;;3.40;;
71080;SDS011;58740;50.672;18.690;2023-05-07T14:59:49;10.40;;;2.90;;
71080;SDS011;58740;50.672;18.690;2023-05-07T15:02:17;5.80;;;2.90;;